createdAt,value
2022-10-17T00:00:54.261Z,100.00
2022-10-17T00:03:22.229Z,100.00
2022-10-17T00:05:50.264Z,100.00
2022-10-17T00:08:19.093Z,100.00
2022-10-17T00:10:56.548Z,100.00
2022-10-17T00:13:24.602Z,100.00
2022-10-17T00:15:52.625Z,100.00
2022-10-17T00:18:20.593Z,100.00
2022-10-17T00:20:48.570Z,100.00
2022-10-17T00:23:16.531Z,100.00
2022-10-17T00:25:44.501Z,100.00
2022-10-17T00:28:13.886Z,100.00
2022-10-17T00:30:41.851Z,100.00
2022-10-17T00:33:09.832Z,100.00
2022-10-17T00:35:37.818Z,100.00
2022-10-17T00:38:05.769Z,100.00
2022-10-17T00:40:33.715Z,100.00
2022-10-17T00:43:01.656Z,100.00
2022-10-17T00:45:31.516Z,100.00
2022-10-17T00:48:01.134Z,100.00
2022-10-17T00:50:29.155Z,100.00
2022-10-17T00:52:57.185Z,100.00
2022-10-17T00:55:26.490Z,100.00
2022-10-17T00:57:54.451Z,100.00
2022-10-17T01:00:22.527Z,100.00
2022-10-17T01:02:51.861Z,100.00
2022-10-17T01:05:19.880Z,100.00
2022-10-17T01:07:48.174Z,100.00
2022-10-17T01:10:16.192Z,100.00
2022-10-17T01:12:50.567Z,100.00
2022-10-17T01:15:23.352Z,100.00
2022-10-17T01:18:00.469Z,100.00
2022-10-17T01:20:57.104Z,100.00
2022-10-17T01:23:31.848Z,100.00
2022-10-17T01:26:05.721Z,100.00
2022-10-17T01:28:45.949Z,100.00
2022-10-17T01:31:15.388Z,100.00
2022-10-17T01:33:47.710Z,100.00
2022-10-17T01:36:19.893Z,100.00
2022-10-17T01:38:48.891Z,100.00
2022-10-17T01:41:20.599Z,100.00
2022-10-17T01:43:50.777Z,100.00
2022-10-17T01:46:23.302Z,100.00
2022-10-17T01:48:51.288Z,100.00
2022-10-17T01:51:20.604Z,100.00
2022-10-17T01:53:50.503Z,100.00
2022-10-17T01:56:18.516Z,100.00
2022-10-17T01:58:48.838Z,100.00
2022-10-17T02:01:16.812Z,100.00
2022-10-17T02:03:46.176Z,100.00
2022-10-17T02:06:14.151Z,100.00
2022-10-17T02:08:42.935Z,100.00
2022-10-17T02:11:13.001Z,100.00
2022-10-17T02:13:47.012Z,100.00
2022-10-17T02:16:20.966Z,100.00
2022-10-17T02:19:03.208Z,100.00
2022-10-17T02:21:34.547Z,100.00
2022-10-17T02:24:06.172Z,100.00
2022-10-17T02:26:34.992Z,100.00
2022-10-17T02:29:07.292Z,100.00
2022-10-17T02:31:37.387Z,100.00
2022-10-17T02:34:08.124Z,100.00
2022-10-17T02:36:45.843Z,100.00
2022-10-17T02:39:13.805Z,100.00
2022-10-17T02:41:41.884Z,100.00
2022-10-17T02:44:09.829Z,100.00
2022-10-17T02:46:37.828Z,100.00
2022-10-17T02:49:09.225Z,100.00
2022-10-17T02:51:39.952Z,100.00
2022-10-17T02:54:10.809Z,100.00
2022-10-17T02:56:41.072Z,100.00
2022-10-17T02:59:09.044Z,100.00
2022-10-17T03:01:37.097Z,100.00
2022-10-17T03:04:10.330Z,100.00
2022-10-17T03:06:38.327Z,100.00
2022-10-17T03:09:06.309Z,100.00
2022-10-17T03:11:34.300Z,100.00
2022-10-17T03:14:02.284Z,100.00
2022-10-17T03:16:30.269Z,100.00
2022-10-17T03:18:58.227Z,100.00
2022-10-17T03:21:27.587Z,100.00
2022-10-17T03:23:55.503Z,100.00
2022-10-17T03:26:23.491Z,100.00
2022-10-17T03:28:53.672Z,100.00
2022-10-17T03:31:22.577Z,100.00
2022-10-17T03:33:50.504Z,100.00
2022-10-17T03:36:19.088Z,100.00
2022-10-17T03:38:48.478Z,100.00
2022-10-17T03:41:16.471Z,100.00
2022-10-17T03:43:44.427Z,100.00
2022-10-17T03:46:12.463Z,100.00
2022-10-17T03:48:40.518Z,100.00
2022-10-17T03:51:09.310Z,100.00
2022-10-17T03:53:37.276Z,100.00
2022-10-17T03:56:13.410Z,100.00
2022-10-17T03:58:41.420Z,100.00
2022-10-17T04:01:10.170Z,100.00
2022-10-17T04:03:38.262Z,100.00
2022-10-17T04:06:06.719Z,100.00
2022-10-17T04:08:34.738Z,100.00
2022-10-17T04:11:02.794Z,100.00
2022-10-17T04:13:32.196Z,100.00
2022-10-17T04:16:00.736Z,100.00
2022-10-17T04:18:28.864Z,100.00
2022-10-17T04:20:56.800Z,100.00
2022-10-17T04:23:26.551Z,100.00
2022-10-17T04:25:57.156Z,100.00
2022-10-17T04:28:25.236Z,100.00
2022-10-17T04:30:58.945Z,100.00
2022-10-17T04:33:26.950Z,100.00
2022-10-17T04:35:58.977Z,100.00
2022-10-17T04:38:28.593Z,100.00
2022-10-17T04:40:58.598Z,100.00
2022-10-17T04:43:26.541Z,100.00
2022-10-17T04:45:54.503Z,100.00
2022-10-17T04:48:23.946Z,100.00
2022-10-17T04:50:55.396Z,100.00
2022-10-17T04:53:23.333Z,100.00
2022-10-17T04:55:51.394Z,100.00
2022-10-17T04:58:19.410Z,100.00
2022-10-17T05:00:47.394Z,100.00
2022-10-17T05:03:15.339Z,100.00
2022-10-17T05:05:44.720Z,100.00
2022-10-17T05:08:12.910Z,100.00
2022-10-17T05:10:41.509Z,100.00
2022-10-17T05:13:09.581Z,100.00
2022-10-17T05:15:37.623Z,100.00
2022-10-17T05:18:05.925Z,100.00
2022-10-17T05:20:34.036Z,100.00
2022-10-17T05:23:03.506Z,100.00
2022-10-17T05:25:31.475Z,100.00
2022-10-17T05:27:59.444Z,100.00
2022-10-17T05:30:27.437Z,100.00
2022-10-17T05:32:55.664Z,100.00
2022-10-17T05:35:24.685Z,100.00
2022-10-17T05:37:52.631Z,100.00
2022-10-17T05:40:22.015Z,100.00
2022-10-17T05:42:50.130Z,100.00
2022-10-17T05:45:18.096Z,100.00
2022-10-17T05:47:46.052Z,100.00
2022-10-17T05:50:14.035Z,100.00
2022-10-17T05:52:43.945Z,100.00
2022-10-17T05:55:14.484Z,100.00
2022-10-17T05:57:43.829Z,100.00
2022-10-17T06:00:12.978Z,100.00
2022-10-17T06:02:40.951Z,100.00
2022-10-17T06:05:09.699Z,100.00
2022-10-17T06:07:37.715Z,100.00
2022-10-17T06:10:06.336Z,100.00
2022-10-17T06:12:34.316Z,100.00
2022-10-17T06:15:03.671Z,100.00
2022-10-17T06:17:31.639Z,100.00
2022-10-17T06:19:59.703Z,100.00
2022-10-17T06:22:27.967Z,100.00
2022-10-17T06:24:56.213Z,100.00
2022-10-17T06:27:24.137Z,100.00
2022-10-17T06:29:52.375Z,100.00
2022-10-17T06:32:22.118Z,100.00
2022-10-17T06:34:50.171Z,100.00
2022-10-17T06:37:18.245Z,100.00
2022-10-17T06:39:46.213Z,100.00
2022-10-17T06:42:14.201Z,100.00
2022-10-17T06:44:42.271Z,100.00
2022-10-17T06:47:10.967Z,100.00
2022-10-17T06:49:40.336Z,100.00
2022-10-17T06:52:08.332Z,100.00
2022-10-17T06:54:36.365Z,100.00
2022-10-17T06:57:04.361Z,100.00
2022-10-17T06:59:32.375Z,100.00
2022-10-17T07:02:00.585Z,100.00
2022-10-17T07:04:28.570Z,100.00
2022-10-17T07:09:27.843Z,100.00
2022-10-17T07:11:55.947Z,100.00
2022-10-17T07:14:24.055Z,100.00
2022-10-17T07:16:52.075Z,100.00
2022-10-17T07:19:20.195Z,100.00
2022-10-17T07:21:49.195Z,100.00
2022-10-17T07:24:18.803Z,100.00
2022-10-17T07:26:46.763Z,100.00
2022-10-17T07:29:14.773Z,100.00
2022-10-17T07:31:42.772Z,100.00
2022-10-17T07:34:10.713Z,100.00
2022-10-17T07:36:38.738Z,100.00
2022-10-17T07:39:06.788Z,100.00
2022-10-17T07:41:36.136Z,100.00
2022-10-17T07:44:04.099Z,100.00
2022-10-17T07:46:32.038Z,100.00
2022-10-17T07:48:59.963Z,100.00
2022-10-17T07:51:28.106Z,100.00
2022-10-17T07:53:56.051Z,100.00
2022-10-17T07:56:24.862Z,100.00
2022-10-17T07:58:54.284Z,100.00
2022-10-17T08:01:22.336Z,100.00
2022-10-17T08:03:50.333Z,100.00
2022-10-17T08:06:18.339Z,100.00
2022-10-17T08:08:46.348Z,100.00
2022-10-17T08:11:15.030Z,96.91
2022-10-17T08:13:43.005Z,96.00
2022-10-17T08:16:13.307Z,95.82
2022-10-17T08:18:41.995Z,94.80
2022-10-17T08:21:13.060Z,94.02
2022-10-17T08:23:41.212Z,91.77
2022-10-17T08:26:10.842Z,88.53
2022-10-17T08:28:39.392Z,86.27
2022-10-17T08:31:08.106Z,83.28
2022-10-17T08:33:37.613Z,78.17
2022-10-17T08:36:06.075Z,76.00
2022-10-17T08:38:35.651Z,74.79
2022-10-17T08:41:05.144Z,74.99
2022-10-17T08:43:43.825Z,74.70
2022-10-17T08:46:11.853Z,75.65
2022-10-17T08:48:45.603Z,74.03
2022-10-17T08:51:16.744Z,75.26
2022-10-17T08:53:46.431Z,73.31
2022-10-17T08:56:19.834Z,70.77
2022-10-17T08:58:52.593Z,66.85
2022-10-17T09:01:31.050Z,65.07
2022-10-17T09:04:11.619Z,59.74
2022-10-17T09:06:40.799Z,58.93
2022-10-17T09:09:18.204Z,57.61
2022-10-17T09:11:55.078Z,55.39
2022-10-17T09:14:31.905Z,55.83
2022-10-17T09:17:09.662Z,53.84
2022-10-17T09:19:40.290Z,53.82
2022-10-17T09:22:10.918Z,55.25
2022-10-17T09:24:41.899Z,53.42
2022-10-17T09:27:20.771Z,53.73
2022-10-17T09:29:50.060Z,55.03
2022-10-17T09:32:19.600Z,53.49
2022-10-17T09:34:48.934Z,52.97
2022-10-17T09:37:17.416Z,52.75
2022-10-17T09:39:45.549Z,53.86
2022-10-17T09:42:15.001Z,53.17
2022-10-17T09:44:47.638Z,54.13
2022-10-17T09:47:27.591Z,53.26
2022-10-17T09:49:56.992Z,52.61
2022-10-17T09:52:28.745Z,53.28
2022-10-17T09:54:58.664Z,53.97
2022-10-17T09:57:26.737Z,52.69
2022-10-17T10:00:00.341Z,53.34
2022-10-17T10:02:29.400Z,51.32
2022-10-17T10:05:04.707Z,51.70
2022-10-17T10:07:34.285Z,51.53
2022-10-17T10:10:03.065Z,49.95
2022-10-17T10:12:32.799Z,49.18
2022-10-17T10:15:00.944Z,48.96
2022-10-17T10:17:34.764Z,49.03
2022-10-17T10:20:04.885Z,49.37
2022-10-17T10:22:33.029Z,47.43
2022-10-17T10:25:14.137Z,47.07
2022-10-17T10:27:42.266Z,47.14
2022-10-17T10:30:18.678Z,48.12
2022-10-17T10:32:47.765Z,47.33
2022-10-17T10:35:20.962Z,48.48
2022-10-17T10:37:49.547Z,48.00
2022-10-17T10:40:19.030Z,47.85
2022-10-17T10:42:48.455Z,47.63
2022-10-17T10:45:35.912Z,48.45
2022-10-17T10:48:23.005Z,47.91
2022-10-17T10:50:54.297Z,46.88
2022-10-17T10:53:35.571Z,47.26
2022-10-17T10:56:06.762Z,45.93
2022-10-17T10:58:42.066Z,44.60
2022-10-17T11:01:15.942Z,44.35
2022-10-17T11:03:50.197Z,44.68
2022-10-17T11:06:21.620Z,45.17
2022-10-17T11:08:50.382Z,44.62
2022-10-17T11:11:23.947Z,45.20
2022-10-17T11:13:55.204Z,45.51
2022-10-17T11:16:27.576Z,45.43
2022-10-17T11:18:59.335Z,44.81
2022-10-17T11:21:34.074Z,43.55
2022-10-17T11:24:09.237Z,41.61
2022-10-17T11:26:41.668Z,39.27
2022-10-17T11:29:11.999Z,37.15
2022-10-17T11:31:41.344Z,34.33
2022-10-17T11:34:11.682Z,31.55
2022-10-17T11:36:42.344Z,30.86
2022-10-17T11:39:15.353Z,29.49
2022-10-17T11:41:44.992Z,27.09
2022-10-17T11:44:16.837Z,26.49
2022-10-17T11:46:44.853Z,27.48
2022-10-17T11:49:19.874Z,27.96
2022-10-17T11:52:05.937Z,30.96
2022-10-17T11:54:35.551Z,30.49
2022-10-17T11:57:26.207Z,32.71
2022-10-17T11:59:58.647Z,35.15
2022-10-17T12:02:32.678Z,36.74
2022-10-17T12:05:05.179Z,38.74
2022-10-17T12:07:39.378Z,39.33
2022-10-17T12:10:22.872Z,40.38
2022-10-17T12:12:50.798Z,41.15
2022-10-17T12:15:29.556Z,42.15
2022-10-17T12:17:58.349Z,43.84
2022-10-17T12:20:28.676Z,44.70
2022-10-17T12:22:59.753Z,44.90
2022-10-17T12:25:30.129Z,46.01
2022-10-17T12:28:15.928Z,47.02
2022-10-17T12:30:51.712Z,47.13
2022-10-17T12:33:22.433Z,47.27
2022-10-17T12:35:51.167Z,47.63
2022-10-17T12:38:28.079Z,47.27
2022-10-17T12:41:03.167Z,46.94
2022-10-17T12:43:57.902Z,48.08
2022-10-17T12:46:52.667Z,48.79
2022-10-17T12:49:39.114Z,48.31
2022-10-17T12:52:29.605Z,48.62
2022-10-17T12:55:11.427Z,48.39
2022-10-17T12:57:44.060Z,48.84
2022-10-17T13:00:21.191Z,48.68
2022-10-17T13:02:49.160Z,49.11
2022-10-17T13:05:20.532Z,48.33
2022-10-17T13:07:48.457Z,48.30
2022-10-17T13:10:22.749Z,48.81
2022-10-17T13:12:50.998Z,48.83
2022-10-17T13:15:20.150Z,49.29
2022-10-17T13:17:56.857Z,49.75
2022-10-17T13:20:30.571Z,49.76
2022-10-17T13:22:59.729Z,49.96
2022-10-17T13:25:29.205Z,50.03
2022-10-17T13:28:13.896Z,50.35
2022-10-17T13:30:47.363Z,51.74
2022-10-17T13:33:30.213Z,50.47
2022-10-17T13:36:00.447Z,49.75
2022-10-17T13:38:30.248Z,50.35
2022-10-17T13:41:10.779Z,50.73
2022-10-17T13:43:47.593Z,51.27
2022-10-17T13:46:36.327Z,50.62
2022-10-17T13:49:11.762Z,50.55
2022-10-17T13:51:44.163Z,51.10
2022-10-17T13:54:19.587Z,52.07
2022-10-17T13:56:48.947Z,52.10
2022-10-17T13:59:23.134Z,52.87
2022-10-17T14:01:52.231Z,52.65
2022-10-17T14:04:20.717Z,52.12
2022-10-17T14:06:51.112Z,51.67
2022-10-17T14:09:22.569Z,52.82
2022-10-17T14:12:01.176Z,53.77
2022-10-17T14:14:32.154Z,54.47
2022-10-17T14:17:14.495Z,53.07
2022-10-17T14:19:42.506Z,52.93
2022-10-17T14:22:17.621Z,53.47
2022-10-17T14:24:45.814Z,54.47
2022-10-17T14:27:29.978Z,54.51
2022-10-17T14:30:00.798Z,54.57
2022-10-17T14:32:28.907Z,55.11
2022-10-17T14:35:10.561Z,55.67
2022-10-17T14:37:46.595Z,55.31
2022-10-17T14:40:16.539Z,55.05
2022-10-17T14:42:45.972Z,56.01
2022-10-17T14:45:14.847Z,56.78
2022-10-17T14:47:44.127Z,57.36
2022-10-17T14:50:22.691Z,58.79
2022-10-17T14:53:00.606Z,58.87
2022-10-17T14:55:29.567Z,60.39
2022-10-17T14:57:58.926Z,61.39
2022-10-17T15:00:29.548Z,63.17
2022-10-17T15:02:57.589Z,66.36
2022-10-17T15:05:25.699Z,67.27
2022-10-17T15:07:53.717Z,68.08
2022-10-17T15:10:28.257Z,70.72
2022-10-17T15:12:59.174Z,74.93
2022-10-17T15:15:39.339Z,77.13
2022-10-17T15:18:07.393Z,79.84
2022-10-17T15:20:35.374Z,82.07
2022-10-17T15:23:03.430Z,84.47
2022-10-17T15:25:32.415Z,86.98
2022-10-17T15:28:00.385Z,89.44
2022-10-17T15:30:29.213Z,91.48
2022-10-17T15:32:58.601Z,93.74
2022-10-17T15:35:26.672Z,96.39
2022-10-17T15:37:54.644Z,98.46
2022-10-17T15:40:23.501Z,99.31
2022-10-17T15:42:51.457Z,100.00
2022-10-17T15:45:21.914Z,100.00
2022-10-17T15:47:51.778Z,100.00
2022-10-17T15:50:21.809Z,100.00
2022-10-17T15:52:51.033Z,100.00
2022-10-17T15:55:19.330Z,100.00
2022-10-17T15:57:47.665Z,100.00
2022-10-17T16:00:17.236Z,100.00
2022-10-17T16:02:45.248Z,100.00
2022-10-17T16:05:16.185Z,100.00
2022-10-17T16:07:46.321Z,100.00
2022-10-17T16:10:14.428Z,100.00
2022-10-17T16:12:42.412Z,100.00
2022-10-17T16:15:13.752Z,100.00
2022-10-17T16:17:41.923Z,100.00
2022-10-17T16:20:10.469Z,100.00
2022-10-17T16:22:38.630Z,100.00
2022-10-17T16:25:10.097Z,100.00
2022-10-17T16:27:38.104Z,100.00
2022-10-17T16:30:07.192Z,100.00
2022-10-17T16:32:35.174Z,100.00
2022-10-17T16:35:03.131Z,100.00
2022-10-17T16:37:31.106Z,100.00
2022-10-17T16:39:59.056Z,100.00
2022-10-17T16:42:28.686Z,100.00
2022-10-17T16:44:56.875Z,100.00
2022-10-17T16:47:24.858Z,100.00
2022-10-17T16:49:52.820Z,100.00
2022-10-17T16:52:20.836Z,100.00
2022-10-17T16:54:48.900Z,100.00
2022-10-17T16:57:16.908Z,100.00
2022-10-17T16:59:46.291Z,100.00
2022-10-17T17:02:16.362Z,100.00
2022-10-17T17:04:47.045Z,100.00
2022-10-17T17:07:15.048Z,100.00
2022-10-17T17:09:43.009Z,100.00
2022-10-17T17:12:10.989Z,100.00
2022-10-17T17:14:39.898Z,100.00
2022-10-17T17:17:15.420Z,100.00
2022-10-17T17:19:52.805Z,100.00
2022-10-17T17:22:20.799Z,100.00
2022-10-17T17:27:17.691Z,100.00
2022-10-17T17:29:45.654Z,100.00
2022-10-17T17:32:14.988Z,100.00
2022-10-17T17:34:42.938Z,100.00
2022-10-17T17:37:10.929Z,100.00
2022-10-17T17:39:39.048Z,100.00
2022-10-17T17:42:07.036Z,100.00
2022-10-17T17:44:35.169Z,100.00
2022-10-17T17:47:03.127Z,100.00
2022-10-17T17:49:32.778Z,100.00
2022-10-17T17:54:37.247Z,100.00
2022-10-17T17:57:08.166Z,100.00
2022-10-17T17:59:36.394Z,100.00
2022-10-17T18:02:06.340Z,100.00
2022-10-17T18:04:36.134Z,100.00
2022-10-17T18:07:04.092Z,100.00
2022-10-17T18:09:32.060Z,100.00
2022-10-17T18:12:00.038Z,100.00
2022-10-17T18:14:28.111Z,100.00
2022-10-17T18:16:56.048Z,100.00
2022-10-17T18:19:24.655Z,100.00
2022-10-17T18:21:54.055Z,100.00
2022-10-17T18:24:22.098Z,100.00
2022-10-17T18:26:51.074Z,100.00
2022-10-17T18:29:19.106Z,100.00
2022-10-17T18:31:47.121Z,100.00
2022-10-17T18:34:15.120Z,100.00
2022-10-17T18:36:43.048Z,100.00
2022-10-17T18:39:12.420Z,100.00
2022-10-17T18:41:40.373Z,100.00
2022-10-17T18:44:08.356Z,100.00
2022-10-17T18:46:40.884Z,100.00
2022-10-17T18:49:10.188Z,100.00
2022-10-17T18:51:38.187Z,100.00
2022-10-17T18:54:06.146Z,100.00
2022-10-17T18:56:35.797Z,100.00
2022-10-17T18:59:03.753Z,100.00
2022-10-17T19:01:31.731Z,100.00
2022-10-17T19:04:00.097Z,100.00
2022-10-17T19:06:31.778Z,100.00
2022-10-17T19:09:00.192Z,100.00
2022-10-17T19:11:29.428Z,100.00
2022-10-17T19:13:59.660Z,100.00
2022-10-17T19:16:29.164Z,100.00
2022-10-17T19:18:59.387Z,100.00
2022-10-17T19:21:27.542Z,100.00
2022-10-17T19:23:57.053Z,100.00
2022-10-17T19:26:25.192Z,100.00
2022-10-17T19:28:53.959Z,100.00
2022-10-17T19:31:26.841Z,100.00
2022-10-17T19:33:55.420Z,100.00
2022-10-17T19:36:27.518Z,100.00
2022-10-17T19:38:58.692Z,100.00
2022-10-17T19:41:26.683Z,100.00
2022-10-17T19:43:54.957Z,100.00
2022-10-17T19:46:25.248Z,100.00
2022-10-17T19:48:53.172Z,100.00
2022-10-17T19:51:22.177Z,100.00
2022-10-17T19:53:50.171Z,100.00
2022-10-17T19:56:18.731Z,100.00
2022-10-17T19:58:46.714Z,100.00
2022-10-17T20:01:15.477Z,100.00
2022-10-17T20:03:44.910Z,100.00
2022-10-17T20:06:12.954Z,100.00
2022-10-17T20:08:41.211Z,100.00
2022-10-17T20:11:11.816Z,100.00
2022-10-17T20:13:39.867Z,100.00
2022-10-17T20:16:08.843Z,100.00
2022-10-17T20:18:36.914Z,100.00
2022-10-17T20:21:08.224Z,100.00
2022-10-17T20:23:36.324Z,100.00
2022-10-17T20:26:25.537Z,100.00
2022-10-17T20:28:54.130Z,100.00
2022-10-17T20:31:22.218Z,100.00
2022-10-17T20:33:50.145Z,100.00
2022-10-17T20:36:23.304Z,100.00
2022-10-17T20:38:54.182Z,100.00
2022-10-17T20:41:22.151Z,100.00
2022-10-17T20:43:51.258Z,100.00
2022-10-17T20:46:35.072Z,100.00
2022-10-17T20:49:04.426Z,100.00
2022-10-17T20:51:33.834Z,100.00
2022-10-17T20:54:02.794Z,100.00
2022-10-17T20:56:31.749Z,100.00
2022-10-17T20:59:00.645Z,100.00
2022-10-17T21:01:28.808Z,100.00
2022-10-17T21:03:59.704Z,100.00
2022-10-17T21:06:30.556Z,100.00
2022-10-17T21:08:59.944Z,100.00
2022-10-17T21:11:28.936Z,100.00
2022-10-17T21:13:57.517Z,100.00
2022-10-17T21:16:25.613Z,100.00
2022-10-17T21:18:53.570Z,100.00
2022-10-17T21:21:22.414Z,100.00
2022-10-17T21:23:51.035Z,100.00
2022-10-17T21:26:20.379Z,100.00
2022-10-17T21:28:49.034Z,100.00
2022-10-17T21:31:18.243Z,100.00
2022-10-17T21:33:47.317Z,100.00
2022-10-17T21:36:16.845Z,100.00
2022-10-17T21:38:44.917Z,100.00
2022-10-17T21:41:13.963Z,100.00
2022-10-17T21:43:43.461Z,100.00
2022-10-17T21:46:13.075Z,100.00
2022-10-17T21:48:41.034Z,100.00
2022-10-17T21:51:10.395Z,100.00
2022-10-17T21:53:38.655Z,100.00
2022-10-17T21:56:08.385Z,100.00
2022-10-17T21:58:36.379Z,100.00
2022-10-17T22:01:06.768Z,100.00
2022-10-17T22:03:35.282Z,100.00
2022-10-17T22:06:12.978Z,100.00
2022-10-17T22:08:51.276Z,100.00
2022-10-17T22:11:22.415Z,100.00
2022-10-17T22:13:53.943Z,100.00
2022-10-17T22:16:23.370Z,100.00
2022-10-17T22:18:51.329Z,100.00
2022-10-17T22:21:20.139Z,100.00
2022-10-17T22:23:49.419Z,100.00
2022-10-17T22:26:17.360Z,100.00
2022-10-17T22:28:45.372Z,100.00
2022-10-17T22:31:13.361Z,100.00
2022-10-17T22:33:42.805Z,100.00
2022-10-17T22:36:11.011Z,100.00
2022-10-17T22:38:39.019Z,100.00
2022-10-17T22:41:07.317Z,100.00
2022-10-17T22:43:35.291Z,100.00
2022-10-17T22:46:04.908Z,100.00
2022-10-17T22:48:32.918Z,100.00
2022-10-17T22:51:02.348Z,100.00
2022-10-17T22:53:30.342Z,100.00
2022-10-17T22:55:59.151Z,100.00
2022-10-17T22:58:27.288Z,100.00
2022-10-17T23:00:55.291Z,100.00
2022-10-17T23:03:23.502Z,100.00
2022-10-17T23:05:51.509Z,100.00
2022-10-17T23:08:20.859Z,100.00
2022-10-17T23:10:48.909Z,100.00
2022-10-17T23:13:17.017Z,100.00
2022-10-17T23:15:44.958Z,100.00
2022-10-17T23:18:12.960Z,100.00
2022-10-17T23:20:40.946Z,100.00
2022-10-17T23:23:08.907Z,100.00
2022-10-17T23:25:38.268Z,100.00
2022-10-17T23:28:07.461Z,100.00
2022-10-17T23:30:35.413Z,100.00
2022-10-17T23:33:03.402Z,100.00
2022-10-17T23:35:31.386Z,100.00
2022-10-17T23:37:59.377Z,100.00
2022-10-17T23:40:27.347Z,100.00
2022-10-17T23:42:56.647Z,100.00
2022-10-17T23:45:24.671Z,100.00
2022-10-17T23:47:52.685Z,100.00
2022-10-17T23:50:20.652Z,100.00
2022-10-17T23:52:48.608Z,100.00
2022-10-17T23:55:16.704Z,100.00
2022-10-17T23:57:44.636Z,100.00
